Jamesport, New York
Current Conditions -  °F | °C
As of 12:53 AM on Thursday 23 Oct 2014 (Local Time) from KFOK Reporting Station
Broken Clouds Broken Clouds  
Wind Chill: 54°   Ceiling: 1600
Heat Index: 54°   Visibility: 10mi
Dew Point: 48°   Wind: 26mph
Humidity: 80%   Direction: 20°NNE
Pressure: 29.65"   Gusts: 46mph
Location:  40.95°N, 72.57°W
Report Text: KFOK 230453Z AUTO 02023G40KT 10SM BKN016 BKN024 BKN060 12/09 A2965 RMK AO2 PK WND 02040/0453 SLP040 T01220089 401560111 TSNO
Loading
Personal Weather Stations






























Interactive Weather Map
Tropical Storm Tracking
New forecast layout! Learn more

10-Day Weather Forecast

Advertisements
Track Severe Weather on mobile